Time;durP1;ratioP1;P1;durP2;ratioP2;P2;SDS_P1;SDS_P2;PMS_P1;PMS_P2;Temp;Humidity;BMP_temperature;BMP_pressure;BME280_temperature;BME280_humidity;BME280_pressure;Samples;Min_cycle;Max_cycle;Signal;HPM_P1;HPM_P2
2022/02/04 00:23:35;;;;;;;19.95;9.25;;;153.60;1664.00;;;;;;5094302;28;20450;-62
2022/02/04 00:26:15;;;;;;;19.35;9.93;;;153.60;1638.40;;;;;;5094083;28;20418;-62
2022/02/04 00:29:03;;;;;;;20.58;10.10;;;153.60;1664.00;;;;;;5094267;28;20028;-62
2022/02/04 00:31:39;;;;;;;21.75;10.43;;;153.60;1664.00;;;;;;5093784;28;20048;-61
2022/02/04 00:34:13;;;;;;;20.30;10.50;;;128.90;1664.00;;;;;;5094250;28;20077;-62
2022/02/04 00:36:51;;;;;;;20.13;10.93;;;128.90;1638.40;;;;;;5093951;28;20067;-62
2022/02/04 00:39:28;;;;;;;24.30;11.52;;;128.90;1664.00;;;;;;5094136;28;20028;-62
2022/02/04 00:42:06;;;;;;;20.58;11.45;;;153.60;1638.40;;;;;;5094035;28;20091;-61
2022/02/04 00:44:39;;;;;;;17.33;10.02;;;153.60;1638.40;;;;;;5093895;28;20027;-63
2022/02/04 00:47:21;;;;;;;19.42;11.68;;;153.60;1638.40;;;;;;5094024;28;20040;-62
2022/02/04 00:50:19;;;;;;;18.77;10.80;;;153.60;1638.40;;;;;;5093705;28;20465;-62
2022/02/04 00:53:03;;;;;;;21.33;11.48;;;153.60;1638.40;;;;;;5093861;28;20389;-61
2022/02/04 00:55:48;;;;;;;20.75;11.13;;;153.60;1638.40;;;;;;5093898;28;20024;-62
2022/02/04 01:26:42;;;;;;;24.75;13.40;;;128.70;1638.40;;;;;;5097683;28;20031;-61
2022/02/04 01:29:14;;;;;;;31.45;14.60;;;128.80;1638.40;;;;;;5097589;28;20031;-61
2022/02/04 01:31:46;;;;;;;25.10;14.25;;;128.70;1664.00;;;;;;5097345;28;20052;-61
2022/02/04 01:34:15;;;;;;;26.35;13.65;;;128.80;1638.40;;;;;;5097434;28;20357;-61
2022/02/04 01:36:46;;;;;;;26.42;14.35;;;128.70;1638.40;;;;;;5097054;28;20024;-61
2022/02/04 01:39:18;;;;;;;23.40;14.00;;;128.60;1664.00;;;;;;5097238;28;20473;-61
2022/02/04 01:41:50;;;;;;;23.65;13.25;;;128.60;1664.00;;;;;;5097026;28;20496;-61
2022/02/04 01:44:29;;;;;;;34.70;15.82;;;128.60;1664.00;;;;;;5097422;28;20093;-61
2022/02/04 01:47:00;;;;;;;24.25;14.70;;;128.60;1664.00;;;;;;5097104;28;20477;-61
2022/02/04 01:49:34;;;;;;;27.92;15.30;;;128.50;1664.00;;;;;;5096920;28;20386;-61
2022/02/04 01:52:07;;;;;;;33.00;17.10;;;128.50;1664.00;;;;;;5096829;28;20055;-61
2022/02/04 01:54:38;;;;;;;30.27;16.13;;;128.60;1664.00;;;;;;5097007;28;20523;-61
2022/02/04 01:57:10;;;;;;;27.45;15.43;;;128.50;1664.00;;;;;;5097081;28;20032;-61
2022/02/04 01:59:41;;;;;;;27.77;15.15;;;128.60;1664.00;;;;;;5097082;28;20020;-61
2022/02/04 02:02:13;;;;;;;25.92;13.52;;;128.50;1664.00;;;;;;5096805;28;20040;-61
2022/02/04 02:04:45;;;;;;;24.38;14.18;;;128.60;1664.00;;;;;;5096935;28;20024;-61
2022/02/04 02:07:21;;;;;;;24.05;14.13;;;128.50;1638.40;;;;;;5096848;28;20023;-61
2022/02/04 02:10:07;;;;;;;25.33;14.70;;;128.50;1664.00;;;;;;5096849;28;20051;-61
2022/02/04 02:12:57;;;;;;;22.95;13.02;;;128.50;1638.40;;;;;;5096733;28;20363;-61
2022/02/04 02:35:47;;;;;;;26.83;15.88;;;128.60;1664.00;;;;;;5096247;28;20077;-62
2022/02/04 02:55:27;;;;;;;29.17;15.27;;;128.70;1638.40;;;;;;5014170;28;20434;-61
2022/02/04 02:58:07;;;;;;;32.65;15.75;;;128.60;1664.00;;;;;;5013885;28;20498;-61
2022/02/04 03:03:32;;;;;;;34.25;17.13;;;128.50;1664.00;;;;;;5013707;28;20026;-61
2022/02/04 03:06:03;;;;;;;35.78;18.65;;;128.60;1638.40;;;;;;5013542;28;20033;-62
2022/02/04 03:08:34;;;;;;;30.88;17.52;;;128.50;1664.00;;;;;;5013310;28;20550;-62
2022/02/04 03:11:05;;;;;;;31.80;18.90;;;128.60;1638.40;;;;;;5013542;28;20029;-61
2022/02/04 03:13:36;;;;;;;32.88;18.55;;;128.50;1664.00;;;;;;5013354;28;20395;-61
2022/02/04 03:16:10;;;;;;;36.58;17.98;;;128.50;1664.00;;;;;;5014044;28;20030;-61
2022/02/04 03:18:44;;;;;;;36.65;18.52;;;128.40;1664.00;;;;;;5013266;28;20550;-61
2022/02/04 03:21:20;;;;;;;37.47;19.42;;;128.50;1664.00;;;;;;5013111;28;20542;-61
2022/02/04 03:23:54;;;;;;;35.50;18.70;;;128.50;1664.00;;;;;;5013054;28;20041;-61
2022/02/04 03:29:17;;;;;;;32.53;17.25;;;128.50;1664.00;;;;;;5094922;28;20030;-61
2022/02/04 03:31:52;;;;;;;33.60;16.55;;;128.50;1664.00;;;;;;5093868;28;20132;-60
2022/02/04 03:34:23;;;;;;;30.52;15.35;;;128.60;1664.00;;;;;;5095060;28;20028;-61
2022/02/04 03:36:55;;;;;;;29.23;15.35;;;128.50;1638.40;;;;;;5094657;28;20028;-60
2022/02/04 03:39:32;;;;;;;30.55;15.73;;;128.50;1664.00;;;;;;5076538;28;20028;-64
2022/02/04 03:42:04;;;;;;;29.83;16.63;;;128.50;1638.40;;;;;;5094816;28;20040;-61
2022/02/04 03:44:36;;;;;;;27.90;16.65;;;128.60;1664.00;;;;;;5094820;28;20016;-61
2022/02/04 03:47:06;;;;;;;28.23;16.27;;;128.60;1638.40;;;;;;5094868;28;20024;-61
2022/02/04 03:49:37;;;;;;;30.35;16.63;;;128.60;1664.00;;;;;;5094752;28;20107;-61
2022/02/04 03:52:09;;;;;;;33.00;16.20;;;128.60;1638.40;;;;;;5094612;28;20102;-61
2022/02/04 03:54:41;;;;;;;33.88;18.00;;;128.60;1638.40;;;;;;5094846;28;20107;-61
2022/02/04 03:57:10;;;;;;;34.90;18.58;;;128.60;1664.00;;;;;;5094369;28;20051;-61
2022/02/04 03:59:42;;;;;;;38.65;20.20;;;128.60;1612.80;;;;;;5094435;28;20012;-61
2022/02/04 04:02:14;;;;;;;31.30;18.15;;;128.60;1638.40;;;;;;5094316;28;20029;-61
2022/02/04 04:04:45;;;;;;;36.78;20.67;;;128.60;1664.00;;;;;;5094288;28;20024;-61
2022/02/04 04:07:17;;;;;;;41.08;21.23;;;128.50;1638.40;;;;;;5094462;28;20101;-61
2022/02/04 04:10:02;;;;;;;44.80;21.75;;;128.50;1664.00;;;;;;5094455;28;20020;-61
2022/02/04 04:12:32;;;;;;;39.03;19.40;;;128.40;1638.40;;;;;;5094228;28;20028;-61
2022/02/04 04:15:07;;;;;;;43.38;21.40;;;128.50;1664.00;;;;;;5094395;28;20228;-61
2022/02/04 04:17:41;;;;;;;37.40;21.10;;;128.50;1638.40;;;;;;5094153;28;20020;-61
2022/02/04 04:20:22;;;;;;;45.63;21.30;;;128.50;1664.00;;;;;;5094187;28;20028;-61
2022/02/04 04:22:56;;;;;;;45.55;22.45;;;128.50;1664.00;;;;;;5094024;28;20061;-62
2022/02/04 04:25:29;;;;;;;55.83;22.38;;;128.50;1664.00;;;;;;5094181;28;20044;-62
2022/02/04 04:28:01;;;;;;;51.05;23.73;;;128.70;1715.20;;;;;;5094183;28;20075;-61
2022/02/04 04:30:31;;;;;;;47.97;24.88;;;128.60;1689.60;;;;;;5093544;28;20136;-61
2022/02/04 04:33:02;;;;;;;58.80;30.83;;;128.70;1689.60;;;;;;5093714;28;20398;-61
2022/02/04 04:35:35;;;;;;;61.95;32.45;;;128.60;1638.40;;;;;;5093494;28;20066;-61
2022/02/04 05:31:01;;;;;;;46.67;24.13;;;128.20;1689.60;;;;;;5093029;28;20020;-60
2022/02/04 05:33:28;;;;;;;47.85;24.40;;;128.20;1715.20;;;;;;5093217;28;20393;-61
2022/02/04 05:35:54;;;;;;;63.35;33.80;;;128.20;1664.00;;;;;;5095781;28;20469;-67
2022/02/04 05:38:21;;;;;;;75.38;38.85;;;128.10;1689.60;;;;;;5101109;28;20059;-65
2022/02/04 05:40:50;;;;;;;65.70;35.28;;;128.10;1689.60;;;;;;5103006;28;20028;-61
2022/02/04 05:43:29;;;;;;;55.42;31.60;;;128.00;1689.60;;;;;;5101463;28;20028;-61
2022/02/04 05:46:01;;;;;;;58.35;30.63;;;128.00;1740.80;;;;;;5101308;28;20035;-60
2022/02/04 05:48:30;;;;;;;58.55;32.55;;;128.00;1689.60;;;;;;5100974;28;20469;-61
2022/02/04 05:51:24;;;;;;;61.60;32.90;;;128.00;1740.80;;;;;;5103093;28;20031;-61
2022/02/04 05:54:05;;;;;;;55.80;29.75;;;128.10;1664.00;;;;;;5102569;28;20046;-61
2022/02/04 05:56:48;;;;;;;51.47;27.85;;;128.00;1715.20;;;;;;5104432;28;20024;-60
2022/02/04 06:04:32;;;;;;;47.70;27.15;;;128.20;1715.20;;;;;;5095214;28;20107;-62
2022/02/04 06:22:45;;;;;;;55.85;27.25;;;128.50;1689.60;;;;;;5097093;28;20520;-59
2022/02/04 06:25:17;;;;;;;64.25;31.08;;;128.50;1715.20;;;;;;5095965;28;20101;-60
2022/02/04 06:27:49;;;;;;;65.90;31.17;;;128.50;1715.20;;;;;;5096213;28;20031;-60
2022/02/04 06:30:21;;;;;;;65.80;33.22;;;128.50;1689.60;;;;;;5096270;28;20024;-60
2022/02/04 06:32:50;;;;;;;67.88;36.08;;;128.50;1689.60;;;;;;5096031;28;20044;-60
2022/02/04 06:35:21;;;;;;;66.85;35.78;;;128.60;1638.40;;;;;;5096104;28;20034;-59
2022/02/04 06:37:53;;;;;;;64.82;36.00;;;128.60;1689.60;;;;;;5095973;28;20025;-60
2022/02/04 06:40:24;;;;;;;58.55;33.53;;;128.60;1689.60;;;;;;5095985;28;20110;-60
2022/02/04 06:42:55;;;;;;;63.13;34.70;;;128.60;1689.60;;;;;;5096054;28;20092;-60
2022/02/04 06:45:26;;;;;;;57.72;34.15;;;128.70;1715.20;;;;;;5096107;28;20051;-60
2022/02/04 06:47:58;;;;;;;58.83;32.58;;;128.60;1664.00;;;;;;5095976;28;20047;-60
2022/02/04 06:50:29;;;;;;;53.72;29.45;;;128.60;1689.60;;;;;;5078427;28;20030;-60
2022/02/04 06:52:58;;;;;;;52.00;28.20;;;128.70;1664.00;;;;;;5095736;28;20016;-60
2022/02/04 06:55:29;;;;;;;45.28;27.63;;;128.60;1689.60;;;;;;5095901;28;20028;-59
2022/02/04 06:58:02;;;;;;;44.88;26.75;;;128.70;1689.60;;;;;;5095550;28;20490;-60
2022/02/04 07:00:33;;;;;;;42.80;25.38;;;128.70;1689.60;;;;;;5095541;28;20473;-60
2022/02/04 07:03:06;;;;;;;42.40;25.45;;;128.70;1715.20;;;;;;5095464;28;20038;-60
2022/02/04 07:05:41;;;;;;;40.83;25.55;;;128.70;1664.00;;;;;;5095648;28;20051;-60
2022/02/04 07:08:20;;;;;;;44.63;24.98;;;128.70;1689.60;;;;;;5095415;28;20035;-60
2022/02/04 07:21:53;;;;;;;38.47;23.13;;;128.80;1715.20;;;;;;5095307;28;20047;-60
2022/02/04 07:24:25;;;;;;;38.20;22.30;;;128.80;1689.60;;;;;;5095349;28;20020;-60
2022/02/04 07:26:56;;;;;;;36.90;21.48;;;128.80;1715.20;;;;;;5095194;28;20032;-60
2022/02/04 07:29:29;;;;;;;38.50;21.33;;;128.90;1664.00;;;;;;5095342;28;20016;-59
2022/02/04 07:32:05;;;;;;;31.50;20.00;;;128.80;1715.20;;;;;;5094789;28;20083;-59
2022/02/04 07:35:14;;;;;;;34.05;18.00;;;128.90;1664.00;;;;;;5095017;28;20024;-59
2022/02/04 07:43:21;;;;;;;38.00;20.95;;;128.90;1689.60;;;;;;5095018;28;20141;-60
2022/02/04 07:45:51;;;;;;;41.15;21.70;;;153.60;1689.60;;;;;;5094830;28;20031;-60
2022/02/04 07:48:23;;;;;;;43.35;22.40;;;153.60;1689.60;;;;;;5094609;28;20497;-59
2022/02/04 07:50:55;;;;;;;36.30;20.15;;;153.60;1689.60;;;;;;5094610;28;20024;-60
2022/02/04 07:53:30;;;;;;;41.92;19.70;;;153.70;1664.00;;;;;;5094657;28;20473;-60
2022/02/04 07:56:02;;;;;;;36.50;19.92;;;153.60;1689.60;;;;;;5094538;28;20032;-59
2022/02/04 07:58:32;;;;;;;34.38;19.48;;;153.70;1689.60;;;;;;5094572;28;20042;-60
2022/02/04 08:01:04;;;;;;;31.17;18.23;;;153.70;1689.60;;;;;;5094376;28;20643;-60
2022/02/04 08:03:45;;;;;;;36.35;17.00;;;153.80;1689.60;;;;;;5094504;28;20024;-60
2022/02/04 08:06:21;;;;;;;28.98;17.15;;;153.80;1664.00;;;;;;5094611;28;20373;-60
2022/02/04 08:12:27;;;;;;;28.33;17.55;;;153.90;1664.00;;;;;;5094776;28;20080;-60
2022/02/04 08:15:14;;;;;;;34.13;17.73;;;153.90;1715.20;;;;;;5092739;28;20055;-60
2022/02/04 08:56:19;;;;;;;42.30;23.60;;;154.20;1689.60;;;;;;4915526;29;20459;-60
2022/02/04 08:58:55;;;;;;;40.33;23.05;;;154.20;1664.00;;;;;;4923651;28;20443;-60
2022/02/04 09:01:37;;;;;;;47.15;24.73;;;154.20;1689.60;;;;;;5011728;28;20109;-60
2022/02/04 09:04:15;;;;;;;45.83;23.38;;;154.30;1689.60;;;;;;5090049;28;20028;-60
2022/02/04 09:07:01;;;;;;;50.58;27.27;;;154.30;1689.60;;;;;;5093609;28;20028;-60
2022/02/04 09:23:24;;;;;;;50.50;26.98;;;179.20;1638.40;;;;;;5011575;28;20149;-60
2022/02/04 09:25:55;;;;;;;65.72;31.48;;;179.30;1664.00;;;;;;5011607;28;20054;-60
2022/02/04 09:28:26;;;;;;;67.10;30.85;;;179.30;1638.40;;;;;;5011611;28;20057;-60
2022/02/04 09:31:00;;;;;;;66.95;32.00;;;179.30;1664.00;;;;;;5015365;28;20060;-60
2022/02/04 09:33:31;;;;;;;52.08;25.52;;;179.40;1664.00;;;;;;5015753;28;20161;-60
2022/02/04 09:36:02;;;;;;;53.08;26.58;;;179.40;1638.40;;;;;;5015284;28;20130;-60
2022/02/04 09:38:34;;;;;;;56.65;27.73;;;179.50;1664.00;;;;;;5015273;28;20030;-60
2022/02/04 09:41:02;;;;;;;40.72;23.75;;;179.60;1638.40;;;;;;5015224;28;20168;-60
2022/02/04 09:43:34;;;;;;;42.47;23.20;;;179.60;1638.40;;;;;;5015678;28;20046;-60
2022/02/04 09:46:07;;;;;;;39.40;20.98;;;179.70;1638.40;;;;;;5014503;28;20025;-60
2022/02/04 09:48:39;;;;;;;37.00;19.75;;;179.60;1638.40;;;;;;5015084;28;20148;-60
2022/02/04 09:51:16;;;;;;;33.00;18.70;;;179.70;1638.40;;;;;;5014928;28;20132;-60
2022/02/04 10:07:59;;;;;;;44.67;22.35;;;180.00;1612.80;;;;;;5076329;28;20107;-60
2022/02/04 10:10:51;;;;;;;29.98;16.33;;;180.10;1612.80;;;;;;5076426;28;20038;-60
2022/02/04 10:19:32;;;;;;;24.48;13.07;;;205.00;1587.20;;;;;;5014351;28;20041;-60
2022/02/04 10:22:04;;;;;;;23.67;13.50;;;205.10;1561.60;;;;;;5014244;28;20057;-60
2022/02/04 10:24:36;;;;;;;21.35;11.90;;;205.10;1536.00;;;;;;5014299;28;20057;-60
2022/02/04 10:27:24;;;;;;;29.10;12.48;;;205.20;1536.00;;;;;;5014362;28;20037;-60
2022/02/04 10:29:57;;;;;;;29.35;14.82;;;205.30;1510.40;;;;;;5014313;28;20041;-60
2022/02/04 10:32:41;;;;;;;29.95;13.25;;;205.30;1536.00;;;;;;5014211;28;20077;-60
2022/02/04 10:35:35;;;;;;;38.85;13.13;;;205.30;1510.40;;;;;;5014106;28;20439;-60
2022/02/04 10:46:44;;;;;;;18.90;10.40;;;205.70;1484.80;;;;;;5013958;28;20060;-60
2022/02/04 11:02:34;;;;;;;21.35;11.00;;;230.90;1459.20;;;;;;5055399;28;20033;-60
2022/02/04 11:05:25;;;;;;;33.85;13.48;;;231.00;1459.20;;;;;;5055371;28;20146;-60
2022/02/04 11:36:20;;;;;;;27.92;13.30;;;256.40;1408.00;;;;;;5045718;28;20117;-59
2022/02/04 11:51:51;;;;;;;23.02;11.95;;;256.80;1356.80;;;;;;4960678;28;20397;-60
2022/02/04 11:56:57;;;;;;;26.88;13.65;;;281.60;1408.00;;;;;;4963423;28;20058;-60
2022/02/04 11:59:44;;;;;;;30.77;15.60;;;281.60;1382.40;;;;;;4962205;28;20023;-59
2022/02/04 12:02:32;;;;;;;22.50;12.07;;;281.60;1356.80;;;;;;4960635;28;20567;-59
2022/02/04 12:05:05;;;;;;;38.22;12.73;;;281.70;1356.80;;;;;;4961542;28;20031;-59
2022/02/04 12:07:55;;;;;;;33.28;12.05;;;281.80;1356.80;;;;;;4961370;28;20035;-59
2022/02/04 12:10:30;;;;;;;19.73;12.02;;;281.80;1356.80;;;;;;4958577;28;20093;-60
2022/02/04 12:12:59;;;;;;;23.63;12.60;;;281.90;1356.80;;;;;;4983471;28;20038;-59
2022/02/04 12:15:32;;;;;;;25.60;12.13;;;281.90;1356.80;;;;;;5001172;28;20516;-61
2022/02/04 12:18:03;;;;;;;29.55;12.85;;;282.00;1356.80;;;;;;4992720;28;20042;-60
2022/02/04 12:20:53;;;;;;;29.48;11.60;;;282.00;1356.80;;;;;;4999902;28;20389;-61
2022/02/04 12:23:35;;;;;;;19.65;11.15;;;282.10;1331.20;;;;;;5095264;28;20078;-60
2022/02/04 12:26:16;;;;;;;26.45;12.27;;;282.20;1331.20;;;;;;5093187;28;20081;-60
2022/02/04 12:29:09;;;;;;;26.88;11.57;;;282.30;1356.80;;;;;;5093690;28;20031;-61
2022/02/04 12:31:47;;;;;;;23.95;12.05;;;282.30;1356.80;;;;;;5093942;28;20051;-60
2022/02/04 12:34:21;;;;;;;22.38;11.70;;;282.40;1356.80;;;;;;5093988;28;20024;-60
2022/02/04 12:37:04;;;;;;;26.13;10.95;;;282.50;1356.80;;;;;;5093809;28;20525;-60
2022/02/04 12:39:35;;;;;;;25.65;11.32;;;307.20;1382.40;;;;;;5093985;28;20103;-61
2022/02/04 12:42:10;;;;;;;20.60;11.85;;;307.20;1382.40;;;;;;5093683;28;20031;-60
2022/02/04 12:44:43;;;;;;;28.50;11.02;;;307.30;1356.80;;;;;;5093713;28;20051;-60
2022/02/04 12:47:20;;;;;;;30.27;12.00;;;307.30;1356.80;;;;;;5093824;28;20039;-61
2022/02/04 12:50:01;;;;;;;29.83;11.85;;;307.40;1331.20;;;;;;5093782;28;20060;-59
2022/02/04 12:52:46;;;;;;;19.48;10.75;;;307.40;1356.80;;;;;;5093678;28;20490;-59
2022/02/04 12:55:34;;;;;;;27.23;10.98;;;307.40;1331.20;;;;;;5093829;28;20039;-59
2022/02/04 12:58:14;;;;;;;24.88;10.88;;;307.50;1331.20;;;;;;5094020;28;20024;-60
2022/02/04 13:07:29;;;;;;;21.38;10.45;;;307.50;1331.20;;;;;;5095521;28;20119;-61
2022/02/04 13:09:50;;;;;;;23.95;11.35;;;307.50;1280.00;;;;;;5100175;28;20031;-59
2022/02/04 13:12:17;;;;;;;24.35;12.10;;;307.60;1305.60;;;;;;5100074;28;20031;-59
2022/02/04 13:14:49;;;;;;;24.30;10.70;;;307.50;1280.00;;;;;;5100345;28;20374;-59
2022/02/04 13:17:36;;;;;;;19.10;10.30;;;307.60;1280.00;;;;;;5100338;28;20024;-61
2022/02/04 13:20:09;;;;;;;22.27;10.80;;;307.60;1280.00;;;;;;5100369;28;20039;-60
2022/02/04 13:22:41;;;;;;;29.77;12.80;;;307.60;1280.00;;;;;;5099948;28;20036;-61
2022/02/04 13:25:16;;;;;;;20.08;12.27;;;307.60;1280.00;;;;;;5100235;28;20373;-60
2022/02/04 13:28:16;;;;;;;28.80;13.77;;;307.70;1280.00;;;;;;5100183;28;20039;-60
2022/02/04 13:31:03;;;;;;;33.88;13.05;;;307.70;1305.60;;;;;;5099619;28;20032;-61
2022/02/04 13:33:43;;;;;;;28.27;12.05;;;307.70;1280.00;;;;;;5099992;28;20040;-59
2022/02/04 13:36:52;;;;;;;23.75;12.68;;;307.70;1305.60;;;;;;5100182;28;20373;-59
2022/02/04 13:42:29;;;;;;;22.98;10.48;;;307.60;1305.60;;;;;;5100163;28;20098;-60
2022/02/04 13:45:10;;;;;;;26.15;10.23;;;307.50;1305.60;;;;;;5099979;28;20031;-59
2022/02/04 13:50:33;;;;;;;27.95;12.10;;;307.50;1331.20;;;;;;5100216;28;20055;-60
2022/02/04 13:53:14;;;;;;;21.05;10.68;;;307.50;1331.20;;;;;;5099657;28;20020;-61
2022/02/04 13:56:07;;;;;;;17.55;10.20;;;307.60;1331.20;;;;;;5100020;28;20028;-61
2022/02/04 14:01:19;;;;;;;24.17;11.02;;;307.60;1331.20;;;;;;5105386;28;20051;-60
2022/02/04 14:03:50;;;;;;;27.20;11.68;;;307.70;1331.20;;;;;;5104771;28;20059;-60
2022/02/04 14:08:57;;;;;;;23.13;12.10;;;307.70;1305.60;;;;;;5119435;28;20389;-60
2022/02/04 14:11:32;;;;;;;26.05;12.55;;;307.70;1280.00;;;;;;5113132;28;20095;-60
2022/02/04 14:14:03;;;;;;;28.27;11.05;;;307.70;1254.40;;;;;;5110261;28;20110;-60
2022/02/04 14:16:29;;;;;;;22.52;11.02;;;307.70;1254.40;;;;;;5098208;28;20420;-60
2022/02/04 14:19:01;;;;;;;29.48;11.20;;;307.60;1254.40;;;;;;5100223;28;20378;-60
2022/02/04 14:21:28;;;;;;;28.75;11.20;;;307.60;1254.40;;;;;;5105281;28;20078;-62
2022/02/04 14:24:06;;;;;;;29.92;11.27;;;307.70;1228.80;;;;;;5107067;28;20461;-60
2022/02/04 14:26:46;;;;;;;23.10;11.50;;;307.60;1254.40;;;;;;5102803;28;20024;-60
2022/02/04 14:31:49;;;;;;;33.70;13.63;;;307.50;1280.00;;;;;;5106737;28;20043;-60
2022/02/04 15:00:34;;;;;;;25.05;13.60;;;282.50;1331.20;;;;;;5013812;28;20083;-58
2022/02/04 15:06:01;;;;;;;29.50;14.60;;;282.50;1356.80;;;;;;5013595;28;20064;-58
2022/02/04 15:08:36;;;;;;;29.20;15.95;;;282.40;1356.80;;;;;;5066403;28;20401;-58
2022/02/04 15:11:15;;;;;;;39.45;17.75;;;282.40;1382.40;;;;;;5095804;28;20016;-58
2022/02/04 15:13:48;;;;;;;29.15;17.27;;;282.40;1382.40;;;;;;5095439;28;20036;-58
2022/02/04 15:16:18;;;;;;;37.15;19.50;;;282.30;1382.40;;;;;;5095445;28;20481;-58
2022/02/04 15:18:50;;;;;;;43.00;20.23;;;282.30;1382.40;;;;;;5095350;28;20081;-59
2022/02/04 15:21:23;;;;;;;39.72;20.20;;;282.30;1382.40;;;;;;5095239;28;20028;-58
2022/02/04 15:23:55;;;;;;;40.47;20.92;;;282.30;1382.40;;;;;;5095026;28;20051;-58
2022/02/04 15:26:29;;;;;;;41.25;21.40;;;282.20;1408.00;;;;;;5094452;28;20462;-58
2022/02/04 15:29:07;;;;;;;38.58;22.42;;;282.20;1408.00;;;;;;5095137;28;20032;-58
2022/02/04 15:31:44;;;;;;;44.28;20.92;;;282.20;1408.00;;;;;;5094985;28;20091;-58
2022/02/04 15:34:17;;;;;;;38.10;20.55;;;282.10;1408.00;;;;;;5095099;28;20358;-58
2022/02/04 15:36:50;;;;;;;35.40;19.63;;;282.10;1408.00;;;;;;5095155;28;20366;-58
2022/02/04 15:39:25;;;;;;;39.30;21.40;;;282.10;1408.00;;;;;;5094829;28;20024;-58
2022/02/04 15:42:02;;;;;;;43.63;22.05;;;282.00;1408.00;;;;;;5094839;28;20039;-59
2022/02/04 15:47:53;;;;;;;43.72;22.38;;;281.80;1433.60;;;;;;4993167;28;20046;-58
2022/02/04 15:56:28;;;;;;;50.03;27.10;;;256.90;1433.60;;;;;;4935580;29;20501;-58
2022/02/04 15:59:23;;;;;;;59.60;28.13;;;256.80;1433.60;;;;;;4935234;29;20032;-59
2022/02/04 16:04:25;;;;;;;51.47;23.98;;;256.70;1459.20;;;;;;4934783;29;20039;-59
2022/02/04 16:06:57;;;;;;;49.95;27.08;;;256.60;1459.20;;;;;;4934880;29;20550;-58
2022/02/04 16:09:29;;;;;;;69.95;27.48;;;256.50;1459.20;;;;;;4934942;29;20035;-59
2022/02/04 16:12:08;;;;;;;68.18;27.63;;;256.40;1484.80;;;;;;4934856;29;20145;-58
2022/02/04 16:14:47;;;;;;;76.45;31.70;;;256.40;1484.80;;;;;;4935011;29;20549;-58
2022/02/04 16:17:35;;;;;;;109.97;41.70;;;256.20;1484.80;;;;;;4934888;29;20043;-58
2022/02/04 16:20:19;;;;;;;48.33;22.00;;;256.20;1484.80;;;;;;4934947;29;20035;-60
2022/02/04 16:23:04;;;;;;;78.57;29.70;;;256.20;1510.40;;;;;;4961170;28;20046;-59
2022/02/04 16:31:09;;;;;;;55.38;28.98;;;256.30;1484.80;;;;;;5011817;28;20029;-58
2022/02/04 16:33:41;;;;;;;62.00;29.55;;;256.20;1510.40;;;;;;5076878;28;20068;-59
2022/02/04 16:36:22;;;;;;;63.15;32.47;;;256.20;1484.80;;;;;;5093882;28;20021;-59
2022/02/04 16:38:55;;;;;;;87.20;40.75;;;256.00;1484.80;;;;;;5093406;28;20055;-59
2022/02/04 16:41:48;;;;;;;87.13;46.47;;;256.00;1510.40;;;;;;5093665;28;20034;-58
2022/02/04 16:44:20;;;;;;;79.15;39.05;;;231.20;1510.40;;;;;;5094099;28;20065;-59
2022/02/04 16:46:51;;;;;;;76.97;38.45;;;231.20;1510.40;;;;;;5093779;28;20024;-58
2022/02/04 16:49:26;;;;;;;84.50;42.40;;;231.20;1510.40;;;;;;5093867;28;20024;-58
2022/02/04 16:51:58;;;;;;;141.02;55.45;;;231.10;1510.40;;;;;;5093896;28;20024;-57
2022/02/04 16:54:27;;;;;;;107.60;41.92;;;231.10;1638.40;;;;;;5093620;28;20028;-57
2022/02/04 16:57:00;;;;;;;77.15;36.63;;;231.20;1561.60;;;;;;5093671;28;20512;-58
2022/02/04 16:59:34;;;;;;;83.32;35.67;;;231.20;1510.40;;;;;;5093620;28;20024;-59
2022/02/04 17:02:03;;;;;;;;;;;231.20;1536.00;;;;;;5094298;28;20484;-58
2022/02/04 17:04:32;;;;;;;75.72;30.30;;;231.00;1510.40;;;;;;5093916;28;19926;-58
2022/02/04 17:07:09;;;;;;;68.32;33.55;;;231.00;1536.00;;;;;;5093229;28;20554;-59
2022/02/04 17:09:47;;;;;;;80.35;34.17;;;230.90;1510.40;;;;;;5093991;28;20039;-59
2022/02/04 17:12:40;;;;;;;66.78;32.58;;;230.80;1536.00;;;;;;5093558;28;20024;-59
2022/02/04 17:15:16;;;;;;;68.57;33.28;;;230.80;1536.00;;;;;;5093481;28;20039;-58
2022/02/04 17:17:49;;;;;;;79.68;35.38;;;230.70;1536.00;;;;;;5093391;28;20467;-58
2022/02/04 17:20:24;;;;;;;94.28;48.35;;;230.80;1536.00;;;;;;5093437;28;20085;-59
2022/02/04 17:22:57;;;;;;;124.32;59.92;;;230.70;1510.40;;;;;;5092955;28;20032;-58
2022/02/04 17:25:30;;;;;;;136.98;66.28;;;230.60;1536.00;;;;;;5093418;28;20536;-58
2022/02/04 17:28:06;;;;;;;111.80;55.42;;;230.60;1536.00;;;;;;5093560;28;20103;-58
2022/02/04 17:30:35;;;;;;;101.90;50.45;;;230.40;1536.00;;;;;;5093492;28;20365;-58
2022/02/04 17:33:07;;;;;;;81.68;42.88;;;230.40;1561.60;;;;;;5093170;28;20089;-58
2022/02/04 17:35:39;;;;;;;112.90;55.85;;;230.50;1536.00;;;;;;5093370;28;20069;-58
2022/02/04 17:38:12;;;;;;;121.00;60.78;;;230.40;1536.00;;;;;;5093183;28;20351;-59
2022/02/04 17:40:40;;;;;;;138.32;71.97;;;230.40;1536.00;;;;;;5093163;28;20051;-58
2022/02/04 17:43:11;;;;;;;130.70;70.43;;;205.70;1536.00;;;;;;5093392;28;20035;-58
2022/02/04 17:45:42;;;;;;;110.95;59.58;;;205.70;1536.00;;;;;;5093501;28;20031;-58
2022/02/04 17:51:41;;;;;;;80.18;39.22;;;205.70;1536.00;;;;;;5033713;28;20083;-59
2022/02/04 17:54:19;;;;;;;76.05;37.47;;;205.60;1561.60;;;;;;5034701;28;20111;-59
2022/02/04 17:59:50;;;;;;;73.35;31.92;;;205.60;1561.60;;;;;;5034771;28;20033;-59
2022/02/04 18:07:49;;;;;;;72.78;33.67;;;205.30;1587.20;;;;;;5034825;28;20082;-59
2022/02/04 18:10:22;;;;;;;65.30;31.35;;;205.30;1587.20;;;;;;5034415;28;20025;-59
2022/02/04 18:12:50;;;;;;;42.65;23.73;;;205.30;1587.20;;;;;;5034475;28;20034;-59
2022/02/04 18:15:19;;;;;;;37.42;19.90;;;205.20;1587.20;;;;;;5034547;28;20037;-59
2022/02/04 18:17:50;;;;;;;39.45;19.55;;;205.20;1587.20;;;;;;5032945;28;20120;-58
2022/02/04 18:20:18;;;;;;;33.22;18.20;;;205.20;1587.20;;;;;;5034237;28;20488;-59
2022/02/04 18:22:50;;;;;;;51.53;24.60;;;205.20;1587.20;;;;;;5034138;28;20043;-59
2022/02/04 18:25:22;;;;;;;49.72;23.15;;;205.10;1587.20;;;;;;5055723;28;20094;-59
2022/02/04 18:28:00;;;;;;;34.78;17.60;;;205.10;1587.20;;;;;;5091907;28;20058;-64
2022/02/04 18:30:35;;;;;;;27.95;15.70;;;205.10;1587.20;;;;;;5095746;28;20458;-67
2022/02/04 18:33:02;;;;;;;31.63;16.67;;;205.10;1587.20;;;;;;5095589;28;20052;-65
2022/02/04 18:35:35;;;;;;;41.45;21.58;;;205.10;1587.20;;;;;;5093822;28;20451;-67
2022/02/04 18:38:21;;;;;;;41.65;22.02;;;205.10;1612.80;;;;;;5095999;28;20036;-62
2022/02/04 18:43:43;;;;;;;38.00;21.42;;;205.20;1587.20;;;;;;5095796;28;20148;-65
2022/02/04 18:49:48;;;;;;;35.17;20.42;;;205.20;1587.20;;;;;;5095100;28;20042;-60
2022/02/04 18:52:18;;;;;;;40.58;22.67;;;205.20;1587.20;;;;;;5089088;28;20416;-61
2022/02/04 18:55:41;;;;;;;42.25;22.33;;;205.20;1587.20;;;;;;5095255;28;20035;-60
2022/02/04 18:57:45;;;;;;;42.75;22.88;;;205.30;1561.60;;;;;;5090823;28;20047;-61
2022/02/04 19:00:18;;;;;;;38.95;21.80;;;205.20;1561.60;;;;;;5095834;28;20050;-61
2022/02/04 19:02:51;;;;;;;38.97;22.05;;;205.10;1587.20;;;;;;5095232;28;20044;-60
2022/02/04 19:05:22;;;;;;;35.22;20.27;;;205.20;1587.20;;;;;;5095730;28;20032;-61
2022/02/04 19:08:02;;;;;;;38.63;20.15;;;205.10;1587.20;;;;;;5101426;28;20044;-60
2022/02/04 19:10:35;;;;;;;36.75;19.20;;;205.00;1587.20;;;;;;5101869;28;20370;-60
2022/02/04 19:13:08;;;;;;;28.15;17.92;;;205.00;1587.20;;;;;;5103298;28;20016;-60
2022/02/04 19:16:01;;;;;;;33.53;18.60;;;205.10;1587.20;;;;;;5098515;28;20105;-60
2022/02/04 19:21:14;;;;;;;43.85;24.83;;;205.00;1587.20;;;;;;5098190;28;20032;-59
2022/02/04 19:23:51;;;;;;;47.78;26.90;;;205.00;1587.20;;;;;;5115884;28;20377;-59
2022/02/04 19:26:25;;;;;;;41.33;24.27;;;205.00;1587.20;;;;;;5116418;28;20075;-59
2022/02/04 19:28:51;;;;;;;51.58;29.10;;;205.00;1587.20;;;;;;5112313;28;20032;-60
2022/02/04 19:31:16;;;;;;;59.97;34.65;;;204.90;1587.20;;;;;;5115570;28;20043;-59